Airfield :
LOGIN :

Register | Disclaimer

   EN    FR    IT 

 










Legend :    VFR   Marginal VFR   IFR   Intensive IFR   Very Intensive IFR
Visi :
Ceiling :
>= 8 km
>= 3000ft
5 to 8 km
1000 to 3000 ft
1500m to 5 km
500 to 1000 ft
800 to 1500m
200 to 500 ft
< 800m
< 200 ft
Symbols :   Thunderstorms  Fog  Heavy snow  Heavy precipitations  Wind > 20 kt
SIGMETs :     Misc.  Thunderstorms  Icing  Turbulence  Mountain Waves  Volcanic Ashes







- Airport Elevation : 194 ft
- IATA code : IEG


EPZG - Zielona Gora Babimost

CURRENT METAR :
  • 161930Z 33003KT 290V360 CAVOK 21/16 Q1011

EXPIRED METARs :
  • 161900Z 30004KT CAVOK 21/15 Q1011

TAF TAF EPZG
Valid from the 16 at 12:00 until the 16 at 21:00 UTC


161130Z 1612/1621 30006KT CAVOK
TEMPO 1615/1618 -SHRA BKN040CB
TEMPO 1618/1621 TSRA BKN030CB
No reported NOTAMs for that airfield.
5 SIGMETs reported for the Warszawa FIR (EPWW) :
 
SIGMET 14 cancelation
EPWW SIGMET 17 VALID 161905/161940 EPWA
EPWW WARSAW FIR CNL SIGMET 14 161540/161940=
SIGMET 13 cancelation
EPWW SIGMET 16 VALID 161543/161935 EPWA
EPWW WARSAW FIR CNL SIGMET 13 161635/161935=
SIGMET 11 cancelation
EPWW SIGMET 15 VALID 161541/161930 EPWA
EPWW WARSAW FIR CNL SIGMET 11 161530/161930=
Embedded thunderstorms
EPWW SIGMET 14 VALID 161540/161940 EPWA
EPWW WARSAW FIR EMBD TS OBS N OF LINE N5510 E01820 - N5330 E01500 - N5110 E01700 - N5200 E02120 - N5320 E02340 TOP FL380 MOV SW NC AND EMBD TS OBS S OF LINE N5000 E01800 - N5100 E01910 - N5040 E02150 - N5000 E02310 TOP FL380 MOV SE NC=
Embedded thunderstorms
EPWW SIGMET 13 VALID 161635/161935 EPWA
EPWW WARSAW FIR EMBD TS OBS N OF LINE N5510 E01820 - N5330 E01500 - N5110 E01700 - N5200 E02120 - N5320 E02340 TOP FL380 MOV SW NC AND EMBD TS OBS S OF LINE N5000 E01800 - N5100 E01910 - N5040 E02150 - N5000 E02310 TOP FL380 MOV SE NC=



MET'MAP, your aeronautical weather chart ! - Copyright ORBIFLY December 2007 - Disclaimer

ORBIFLY MET'MAP TEAM :

Programming & Development : Alexandra Zaïnal
Concept & Development : Baudouin d'Aumeries
Co-Development & Prog : Marc-Olivier Méhu
Technical & hardware support : Manuel Goepfert

Contact : metmap@orbifly.com




SOURCES & CREDITS :

   NOAA